createdAt,value
2019-03-06T00:01:48.835Z,6.10
2019-03-06T00:04:15.252Z,4.87
2019-03-06T00:06:41.841Z,5.63
2019-03-06T00:09:08.565Z,4.20
2019-03-06T00:11:35.190Z,7.30
2019-03-06T00:14:01.854Z,6.93
2019-03-06T00:16:28.358Z,6.97
2019-03-06T00:18:55.003Z,5.67
2019-03-06T00:21:21.902Z,4.97
2019-03-06T00:23:48.477Z,8.33
2019-03-06T00:26:15.001Z,8.90
2019-03-06T00:28:41.461Z,4.97
2019-03-06T00:31:07.905Z,7.83
2019-03-06T00:33:34.510Z,6.10
2019-03-06T00:36:02.941Z,4.20
2019-03-06T00:38:29.453Z,6.77
2019-03-06T00:40:58.011Z,6.13
2019-03-06T00:43:24.516Z,4.83
2019-03-06T00:45:51.252Z,7.30
2019-03-06T00:48:17.654Z,4.43
2019-03-06T00:50:44.416Z,3.87
2019-03-06T00:53:10.824Z,6.63
2019-03-06T00:55:37.343Z,9.13
2019-03-06T00:58:03.943Z,4.33
2019-03-06T01:00:30.538Z,3.50
2019-03-06T01:02:57.188Z,7.33
2019-03-06T01:05:24.165Z,5.27
2019-03-06T01:07:50.783Z,9.10
2019-03-06T01:10:17.382Z,6.43
2019-03-06T01:12:44.115Z,6.27
2019-03-06T01:15:13.616Z,5.77
2019-03-06T01:17:40.114Z,6.77
2019-03-06T01:20:11.515Z,7.97
2019-03-06T01:22:38.142Z,6.70
2019-03-06T01:25:09.279Z,7.70
2019-03-06T01:27:35.811Z,7.40
2019-03-06T01:30:13.693Z,5.70
2019-03-06T01:32:40.347Z,7.57
2019-03-06T01:35:18.452Z,7.03
2019-03-06T01:37:47.301Z,8.30
2019-03-06T01:40:30.968Z,7.53
2019-03-06T01:42:59.538Z,9.20
2019-03-06T01:45:26.222Z,7.73
2019-03-06T01:47:52.644Z,8.43
2019-03-06T01:50:19.277Z,9.50
2019-03-06T01:52:46.147Z,6.57
2019-03-06T01:55:12.967Z,6.30
2019-03-06T01:57:39.583Z,7.87
2019-03-06T02:00:11.520Z,8.57
2019-03-06T02:02:38.037Z,5.73
2019-03-06T02:05:09.144Z,7.23
2019-03-06T02:07:36.291Z,8.80
2019-03-06T02:10:06.119Z,8.97
2019-03-06T02:12:32.745Z,8.17
2019-03-06T02:14:59.367Z,5.90
2019-03-06T02:17:25.863Z,8.37
2019-03-06T02:19:52.511Z,7.93
2019-03-06T02:22:19.090Z,8.67
2019-03-06T02:24:45.509Z,13.57
2019-03-06T02:27:11.932Z,9.10
2019-03-06T02:29:38.338Z,8.07
2019-03-06T02:32:04.843Z,10.73
2019-03-06T02:34:31.659Z,8.90
2019-03-06T02:36:58.050Z,11.30
2019-03-06T02:39:24.545Z,10.47
2019-03-06T02:41:50.964Z,12.67
2019-03-06T02:44:17.582Z,10.67
2019-03-06T02:46:44.129Z,11.50
2019-03-06T02:49:10.503Z,10.77
2019-03-06T02:51:36.938Z,11.13
2019-03-06T02:54:03.536Z,9.40
2019-03-06T02:56:29.963Z,11.63
2019-03-06T02:58:58.264Z,13.57
2019-03-06T03:01:32.931Z,11.37
2019-03-06T03:04:04.324Z,10.63
2019-03-06T03:06:38.961Z,10.33
2019-03-06T03:09:15.435Z,11.53
2019-03-06T03:11:41.970Z,10.30
2019-03-06T03:14:08.484Z,15.43
2019-03-06T03:16:34.906Z,13.23
2019-03-06T03:19:01.431Z,11.70
2019-03-06T03:21:27.972Z,11.43
2019-03-06T03:23:54.517Z,11.90
2019-03-06T03:26:21.057Z,11.67
2019-03-06T03:28:47.818Z,11.87
2019-03-06T03:31:14.233Z,12.37
2019-03-06T03:33:40.694Z,10.03
2019-03-06T03:36:07.308Z,10.67
2019-03-06T03:38:33.611Z,13.07
2019-03-06T03:41:00.232Z,14.43
2019-03-06T03:43:26.554Z,12.73
2019-03-06T03:45:53.274Z,11.33
2019-03-06T03:48:19.797Z,13.30
2019-03-06T03:50:46.089Z,10.70
2019-03-06T03:53:12.527Z,10.37
2019-03-06T03:55:38.934Z,11.07
2019-03-06T03:58:05.274Z,12.33
2019-03-06T04:00:31.884Z,14.53
2019-03-06T04:02:58.736Z,12.17
2019-03-06T04:05:25.133Z,13.43
2019-03-06T04:07:51.580Z,11.97
2019-03-06T04:10:18.247Z,12.17
2019-03-06T04:12:44.786Z,13.20
2019-03-06T04:15:17.051Z,12.23
2019-03-06T04:17:43.651Z,11.40
2019-03-06T04:20:14.799Z,11.27
2019-03-06T04:22:41.331Z,13.37
2019-03-06T04:25:09.249Z,12.57
2019-03-06T04:27:35.809Z,12.30
2019-03-06T04:30:07.406Z,12.33
2019-03-06T04:32:33.860Z,13.53
2019-03-06T04:35:00.333Z,14.43
2019-03-06T04:37:26.735Z,12.20
2019-03-06T04:39:53.152Z,12.33
2019-03-06T04:42:19.527Z,11.70
2019-03-06T04:44:46.245Z,13.17
2019-03-06T04:47:12.640Z,15.03
2019-03-06T04:49:39.213Z,12.00
2019-03-06T04:52:05.812Z,15.27
2019-03-06T04:54:32.134Z,12.33
2019-03-06T04:56:58.506Z,12.67
2019-03-06T04:59:25.409Z,10.77
2019-03-06T05:01:51.925Z,13.60
2019-03-06T05:04:18.355Z,10.60
2019-03-06T05:06:44.761Z,12.87
2019-03-06T05:09:11.093Z,11.57
2019-03-06T05:11:37.716Z,11.60
2019-03-06T05:14:04.330Z,11.87
2019-03-06T05:16:44.498Z,11.30
2019-03-06T05:19:10.826Z,11.80
2019-03-06T05:21:37.314Z,11.30
2019-03-06T05:24:03.871Z,11.13
2019-03-06T05:26:30.282Z,13.90
2019-03-06T05:28:56.688Z,11.93
2019-03-06T05:31:23.235Z,12.60
2019-03-06T05:33:49.612Z,14.03
2019-03-06T05:36:57.837Z,10.87
2019-03-06T05:39:25.598Z,8.50
2019-03-06T05:41:52.167Z,11.10
2019-03-06T05:44:18.497Z,11.03
2019-03-06T05:46:45.013Z,9.47
2019-03-06T05:49:11.397Z,9.83
2019-03-06T05:51:37.886Z,10.60
2019-03-06T05:54:04.634Z,11.83
2019-03-06T05:56:31.308Z,12.93
2019-03-06T05:58:57.811Z,12.20
2019-03-06T06:01:24.344Z,9.50
2019-03-06T06:03:50.768Z,9.40
2019-03-06T06:06:17.119Z,9.10
2019-03-06T06:08:43.675Z,11.50
2019-03-06T06:11:10.273Z,10.10
2019-03-06T06:13:36.686Z,7.03
2019-03-06T06:16:03.348Z,11.80
2019-03-06T06:18:29.618Z,9.23
2019-03-06T06:21:00.737Z,9.30
2019-03-06T06:23:47.127Z,13.00
2019-03-06T06:26:13.501Z,9.93
2019-03-06T06:28:39.930Z,11.60
2019-03-06T06:31:06.475Z,13.17
2019-03-06T06:33:32.876Z,12.13
2019-03-06T06:35:59.281Z,11.43
2019-03-06T06:38:25.824Z,8.83
2019-03-06T06:40:52.439Z,9.80
2019-03-06T06:43:19.106Z,10.43
2019-03-06T06:45:45.685Z,12.73
2019-03-06T06:48:18.465Z,11.83
2019-03-06T06:51:11.315Z,9.70
2019-03-06T06:54:05.965Z,12.07
2019-03-06T06:57:03.796Z,13.40
2019-03-06T06:59:42.073Z,9.53
2019-03-06T07:02:59.080Z,16.83
2019-03-06T07:05:27.670Z,13.07
2019-03-06T07:07:59.086Z,13.70
2019-03-06T07:10:39.731Z,14.03
2019-03-06T07:13:10.967Z,13.83
2019-03-06T07:15:39.268Z,14.43
2019-03-06T07:18:10.517Z,14.87
2019-03-06T07:20:41.832Z,10.07
2019-03-06T07:23:10.046Z,14.73
2019-03-06T07:25:38.473Z,13.30
2019-03-06T07:28:07.003Z,9.43
2019-03-06T07:30:38.437Z,10.27
2019-03-06T07:33:13.053Z,12.37
2019-03-06T07:35:57.217Z,10.67
2019-03-06T07:38:24.341Z,12.07
2019-03-06T07:41:09.605Z,10.40
2019-03-06T07:43:38.217Z,9.10
2019-03-06T07:46:18.918Z,10.23
2019-03-06T07:49:03.788Z,8.63
2019-03-06T07:51:32.151Z,11.53
2019-03-06T07:54:12.171Z,8.70
2019-03-06T07:56:43.405Z,10.10
2019-03-06T07:59:09.886Z,12.90
2019-03-06T08:01:51.059Z,7.83
2019-03-06T08:04:17.469Z,9.70
2019-03-06T08:06:45.794Z,5.57
2019-03-06T08:09:16.921Z,10.23
2019-03-06T08:11:45.395Z,8.63
2019-03-06T08:14:30.388Z,7.27
2019-03-06T08:16:58.928Z,8.23
2019-03-06T08:19:27.484Z,13.73
2019-03-06T08:22:01.707Z,8.57
2019-03-06T08:24:30.717Z,10.47
2019-03-06T08:26:57.336Z,9.90
2019-03-06T08:29:23.942Z,8.47
2019-03-06T08:31:51.926Z,7.70
2019-03-06T08:34:18.326Z,6.43
2019-03-06T08:36:45.251Z,7.27
2019-03-06T08:39:18.131Z,3.43
2019-03-06T08:41:44.783Z,7.73
2019-03-06T08:44:11.488Z,8.77
2019-03-06T08:46:56.643Z,5.30
2019-03-06T08:49:33.888Z,6.23
2019-03-06T08:52:05.219Z,6.33
2019-03-06T08:54:33.653Z,6.17
2019-03-06T08:57:02.053Z,7.67
2019-03-06T08:59:41.864Z,9.40
2019-03-06T09:02:27.372Z,4.90
2019-03-06T09:05:05.056Z,6.13
2019-03-06T09:07:45.600Z,5.30
2019-03-06T09:10:23.911Z,5.33
2019-03-06T09:12:55.331Z,8.50
2019-03-06T09:15:40.986Z,5.20
2019-03-06T09:18:15.282Z,6.90
2019-03-06T09:20:44.043Z,6.03
2019-03-06T09:23:29.338Z,4.00
2019-03-06T09:26:14.506Z,5.23
2019-03-06T09:28:48.587Z,5.53
2019-03-06T09:31:32.349Z,6.23
2019-03-06T09:34:00.902Z,5.87
2019-03-06T09:36:38.231Z,4.57
2019-03-06T09:39:22.008Z,5.10
2019-03-06T09:41:50.614Z,6.97
2019-03-06T09:44:35.791Z,5.63
2019-03-06T09:47:13.097Z,4.43
2019-03-06T09:49:47.558Z,6.30
2019-03-06T09:52:19.203Z,5.10
2019-03-06T09:54:47.737Z,6.23
2019-03-06T09:57:16.268Z,5.33
2019-03-06T09:59:50.732Z,6.10
2019-03-06T10:02:21.806Z,4.27
2019-03-06T10:04:56.191Z,7.73
2019-03-06T10:07:27.555Z,7.50
2019-03-06T10:09:59.415Z,5.20
2019-03-06T10:12:36.718Z,7.60
2019-03-06T10:15:12.982Z,8.43
2019-03-06T10:17:41.474Z,9.10
2019-03-06T10:20:14.351Z,9.53
2019-03-06T10:22:41.160Z,6.83
2019-03-06T10:25:07.923Z,6.73
2019-03-06T10:27:34.388Z,5.67
2019-03-06T10:30:00.990Z,8.80
2019-03-06T10:32:27.553Z,8.50
2019-03-06T10:34:55.186Z,7.60
2019-03-06T10:37:21.829Z,6.10
2019-03-06T10:39:48.413Z,6.77
2019-03-06T10:42:15.218Z,3.70
2019-03-06T10:44:41.941Z,5.03
2019-03-06T10:47:08.393Z,5.60
2019-03-06T10:49:35.193Z,7.03
2019-03-06T10:52:01.931Z,5.30
2019-03-06T10:54:29.277Z,4.60
2019-03-06T10:56:56.942Z,7.13
2019-03-06T10:59:23.609Z,8.33
2019-03-06T11:01:50.353Z,9.70
2019-03-06T11:04:18.739Z,5.30
2019-03-06T11:06:45.583Z,6.23
2019-03-06T11:09:12.414Z,3.30
2019-03-06T11:11:39.189Z,7.03
2019-03-06T11:14:07.312Z,6.67
2019-03-06T11:16:36.629Z,9.17
2019-03-06T11:19:03.638Z,5.63
2019-03-06T11:21:30.252Z,6.93
2019-03-06T11:23:56.822Z,7.37
2019-03-06T11:26:24.218Z,7.13
2019-03-06T11:28:50.871Z,6.57
2019-03-06T11:31:17.794Z,6.80
2019-03-06T11:33:44.599Z,7.60
2019-03-06T11:36:11.398Z,3.67
2019-03-06T11:38:37.924Z,4.03
2019-03-06T11:41:05.267Z,6.50
2019-03-06T11:43:32.412Z,7.27
2019-03-06T11:45:59.029Z,8.10
2019-03-06T11:48:25.953Z,5.50
2019-03-06T11:50:52.469Z,5.23
2019-03-06T11:53:19.597Z,5.83
2019-03-06T11:55:46.284Z,5.87
2019-03-06T11:58:16.939Z,8.73
2019-03-06T12:00:45.363Z,7.83
2019-03-06T12:03:15.067Z,5.50
2019-03-06T12:05:42.198Z,10.43
2019-03-06T12:08:13.433Z,8.70
2019-03-06T12:10:40.688Z,6.47
2019-03-06T12:13:10.803Z,6.00
2019-03-06T12:15:38.149Z,5.53
2019-03-06T12:18:05.171Z,5.77
2019-03-06T12:20:32.450Z,6.90
2019-03-06T12:22:59.413Z,7.20
2019-03-06T12:25:26.288Z,5.63
2019-03-06T12:27:52.912Z,6.03
2019-03-06T12:30:19.666Z,4.13
2019-03-06T12:32:46.253Z,4.30
2019-03-06T12:35:16.790Z,3.00
2019-03-06T12:37:46.971Z,6.03
2019-03-06T12:40:20.228Z,7.77
2019-03-06T12:42:46.797Z,3.33
2019-03-06T12:45:17.604Z,5.60
2019-03-06T12:47:57.551Z,3.87
2019-03-06T12:50:29.202Z,6.47
2019-03-06T12:52:55.946Z,5.13
2019-03-06T12:55:22.826Z,5.80
2019-03-06T12:57:49.482Z,8.70
2019-03-06T13:00:19.638Z,6.03
2019-03-06T13:02:46.468Z,6.53
2019-03-06T13:05:13.311Z,6.33
2019-03-06T13:07:40.034Z,4.40
2019-03-06T13:10:11.107Z,8.17
2019-03-06T13:12:38.298Z,6.37
2019-03-06T13:15:10.206Z,5.27
2019-03-06T13:17:36.754Z,8.80
2019-03-06T13:20:08.864Z,4.70
2019-03-06T13:22:35.945Z,6.23
2019-03-06T13:25:04.634Z,3.97
2019-03-06T13:27:31.314Z,4.33
2019-03-06T13:29:58.242Z,6.07
2019-03-06T13:32:26.777Z,6.30
2019-03-06T13:34:53.602Z,6.43
2019-03-06T13:37:20.193Z,5.47
2019-03-06T13:39:46.806Z,6.07
2019-03-06T13:42:13.391Z,4.83
2019-03-06T13:44:39.999Z,4.13
2019-03-06T13:47:06.663Z,4.83
2019-03-06T13:49:33.413Z,5.73
2019-03-06T13:51:59.994Z,17.93
2019-03-06T13:54:27.118Z,7.80
2019-03-06T13:56:53.713Z,4.50
2019-03-06T13:59:20.319Z,16.83
2019-03-06T14:01:47.308Z,7.03
2019-03-06T14:04:13.879Z,6.10
2019-03-06T14:06:40.504Z,4.50
2019-03-06T14:09:07.767Z,5.67
2019-03-06T14:11:34.357Z,5.00
2019-03-06T14:14:01.527Z,6.10
2019-03-06T14:16:28.758Z,4.57
2019-03-06T14:18:55.517Z,5.13
2019-03-06T14:21:22.265Z,5.33
2019-03-06T14:23:48.927Z,8.03
2019-03-06T14:26:15.455Z,4.27
2019-03-06T14:28:42.089Z,4.93
2019-03-06T14:31:10.806Z,6.97
2019-03-06T14:33:37.377Z,4.73
2019-03-06T14:36:04.128Z,6.93
2019-03-06T14:38:31.139Z,5.50
2019-03-06T14:40:57.992Z,7.83
2019-03-06T14:43:24.727Z,5.50
2019-03-06T14:45:51.497Z,5.93
2019-03-06T14:48:18.101Z,4.43
2019-03-06T14:50:44.779Z,8.97
2019-03-06T14:53:11.417Z,7.43
2019-03-06T14:55:38.107Z,8.17
2019-03-06T14:58:04.783Z,4.43
2019-03-06T15:00:31.566Z,4.87
2019-03-06T15:02:58.154Z,7.20
2019-03-06T15:05:25.394Z,4.63
2019-03-06T15:07:52.318Z,5.17
2019-03-06T15:10:19.369Z,7.47
2019-03-06T15:12:46.166Z,5.30
2019-03-06T15:15:19.760Z,5.37
2019-03-06T15:17:47.131Z,6.97
2019-03-06T15:20:20.202Z,5.27
2019-03-06T15:22:49.593Z,4.70
2019-03-06T15:25:22.803Z,6.27
2019-03-06T15:27:49.434Z,6.67
2019-03-06T15:30:21.339Z,5.57
2019-03-06T15:32:48.534Z,5.43
2019-03-06T15:35:16.433Z,3.90
2019-03-06T15:37:43.812Z,7.50
2019-03-06T15:40:18.880Z,4.37
2019-03-06T15:42:45.687Z,9.60
2019-03-06T15:45:15.062Z,4.90
2019-03-06T15:47:42.000Z,7.03
2019-03-06T15:50:12.573Z,5.60
2019-03-06T15:52:40.265Z,5.97
2019-03-06T15:55:11.279Z,6.27
2019-03-06T15:57:38.076Z,4.77
2019-03-06T16:00:23.424Z,5.33
2019-03-06T16:02:50.617Z,4.27
2019-03-06T16:05:18.548Z,8.40
2019-03-06T16:07:45.314Z,5.87
2019-03-06T16:10:14.426Z,7.77
2019-03-06T16:12:42.319Z,9.27
2019-03-06T16:15:09.995Z,5.80
2019-03-06T16:17:36.984Z,7.03
2019-03-06T16:20:17.129Z,5.53
2019-03-06T16:22:44.890Z,6.40
2019-03-06T16:25:12.436Z,6.10
2019-03-06T16:27:39.193Z,7.73
2019-03-06T16:30:19.076Z,7.70
2019-03-06T16:32:46.039Z,7.90
2019-03-06T16:35:14.185Z,10.70
2019-03-06T16:37:41.288Z,4.70
2019-03-06T16:40:20.087Z,8.33
2019-03-06T16:42:47.687Z,5.17
2019-03-06T16:45:17.343Z,4.37
2019-03-06T16:47:45.374Z,18.03
2019-03-06T16:50:18.651Z,5.60
2019-03-06T16:52:46.259Z,4.67
2019-03-06T16:55:19.359Z,5.90
2019-03-06T16:57:46.971Z,5.93
2019-03-06T17:00:27.184Z,6.53
2019-03-06T17:02:56.026Z,5.43
2019-03-06T17:05:23.499Z,9.73
2019-03-06T17:07:50.982Z,5.90
2019-03-06T17:10:26.822Z,3.47
2019-03-06T17:12:54.195Z,7.67
2019-03-06T17:15:22.608Z,6.10
2019-03-06T17:17:50.341Z,7.77
2019-03-06T17:20:23.922Z,8.00
2019-03-06T17:22:51.254Z,6.77
2019-03-06T17:25:18.166Z,4.50
2019-03-06T17:27:45.095Z,8.23
2019-03-06T17:30:22.339Z,4.83
2019-03-06T17:32:58.630Z,6.17
2019-03-06T17:35:27.065Z,5.10
2019-03-06T17:37:54.127Z,8.00
2019-03-06T17:40:21.187Z,4.57
2019-03-06T17:42:48.055Z,6.80
2019-03-06T17:45:16.930Z,7.70
2019-03-06T17:47:44.629Z,8.20
2019-03-06T17:50:13.989Z,7.13
2019-03-06T17:52:41.032Z,7.63
2019-03-06T17:55:09.189Z,6.93
2019-03-06T17:57:35.958Z,5.93
2019-03-06T18:00:16.635Z,6.10
2019-03-06T18:02:36.854Z,7.30
2019-03-06T18:05:04.962Z,6.97
2019-03-06T18:07:31.816Z,6.50
2019-03-06T18:09:58.702Z,6.20
2019-03-06T18:12:25.770Z,6.10
2019-03-06T18:14:52.615Z,5.87
2019-03-06T18:17:19.124Z,6.67
2019-03-06T18:19:45.870Z,8.53
2019-03-06T18:22:12.649Z,7.20
2019-03-06T18:24:39.657Z,11.00
2019-03-06T18:27:06.679Z,7.43
2019-03-06T18:29:33.487Z,5.33
2019-03-06T18:32:00.195Z,10.20
2019-03-06T18:34:26.994Z,7.03
2019-03-06T18:36:53.823Z,10.90
2019-03-06T18:39:20.731Z,8.00
2019-03-06T18:41:47.800Z,8.37
2019-03-06T18:44:14.790Z,9.73
2019-03-06T18:46:41.457Z,9.83
2019-03-06T18:49:08.245Z,8.90
2019-03-06T18:51:35.179Z,8.73
2019-03-06T18:54:02.375Z,6.63
2019-03-06T18:56:29.302Z,9.00
2019-03-06T18:58:56.315Z,8.87
2019-03-06T19:01:23.453Z,11.50
2019-03-06T19:03:50.355Z,10.33
2019-03-06T19:06:17.332Z,10.37
2019-03-06T19:08:45.893Z,9.63
2019-03-06T19:11:16.980Z,8.80
2019-03-06T19:13:43.940Z,10.53
2019-03-06T19:16:13.619Z,8.37
2019-03-06T19:18:42.217Z,8.53
2019-03-06T19:21:10.793Z,6.40
2019-03-06T19:23:37.927Z,9.83
2019-03-06T19:26:04.844Z,11.23
2019-03-06T19:28:31.884Z,9.13
2019-03-06T19:30:58.721Z,9.30
2019-03-06T19:33:25.926Z,8.37
2019-03-06T19:35:52.924Z,9.00
2019-03-06T19:38:19.604Z,8.20
2019-03-06T19:40:46.377Z,8.53
2019-03-06T19:43:13.185Z,10.03
2019-03-06T19:45:40.143Z,7.40
2019-03-06T19:48:07.477Z,8.80
2019-03-06T19:50:34.203Z,12.60
2019-03-06T19:53:01.381Z,7.67
2019-03-06T19:55:28.300Z,7.90
2019-03-06T19:58:01.058Z,9.13
2019-03-06T20:00:30.240Z,8.37
2019-03-06T20:02:57.967Z,13.70
2019-03-06T20:05:30.095Z,9.97
2019-03-06T20:07:57.311Z,8.63
2019-03-06T20:10:24.389Z,7.23
2019-03-06T20:12:51.598Z,8.07
2019-03-06T20:15:19.295Z,6.70
2019-03-06T20:17:46.460Z,9.90
2019-03-06T20:20:16.832Z,7.37
2019-03-06T20:22:44.148Z,8.83
2019-03-06T20:25:11.549Z,6.83
2019-03-06T20:27:38.605Z,8.03
2019-03-06T20:30:13.208Z,14.07
2019-03-06T20:32:40.248Z,8.83
2019-03-06T20:35:07.865Z,10.40
2019-03-06T20:37:35.134Z,10.47
2019-03-06T20:40:03.475Z,10.63
2019-03-06T20:42:30.687Z,8.73
2019-03-06T20:44:57.584Z,8.40
2019-03-06T20:47:24.293Z,9.70
2019-03-06T20:49:51.300Z,10.97
2019-03-06T20:52:18.420Z,10.23
2019-03-06T20:54:45.372Z,8.33
2019-03-06T20:57:12.319Z,15.20
2019-03-06T20:59:39.658Z,9.43
2019-03-06T21:02:06.929Z,9.35
2019-03-06T21:04:33.879Z,11.63
2019-03-06T21:07:00.913Z,6.93
2019-03-06T21:09:28.130Z,8.33
2019-03-06T21:11:55.022Z,7.93
2019-03-06T21:14:21.859Z,7.63
2019-03-06T21:16:48.869Z,8.37
2019-03-06T21:19:15.602Z,7.63
2019-03-06T21:21:42.490Z,11.57
2019-03-06T21:24:09.616Z,11.40
2019-03-06T21:26:36.559Z,8.80
2019-03-06T21:29:03.501Z,8.77
2019-03-06T21:31:30.566Z,8.30
2019-03-06T21:33:57.302Z,10.10
2019-03-06T21:36:24.153Z,7.80
2019-03-06T21:38:51.011Z,10.40
2019-03-06T21:41:17.856Z,10.07
2019-03-06T21:43:44.649Z,7.43
2019-03-06T21:46:11.614Z,7.63
2019-03-06T21:48:38.334Z,9.07
2019-03-06T21:51:05.518Z,9.53
2019-03-06T21:53:32.138Z,7.97
2019-03-06T21:55:59.064Z,6.30
2019-03-06T21:58:25.740Z,12.50
2019-03-06T22:00:52.661Z,11.10
2019-03-06T22:03:19.208Z,11.10
2019-03-06T22:05:46.185Z,10.57
2019-03-06T22:08:12.741Z,7.40
2019-03-06T22:10:39.384Z,11.23
2019-03-06T22:13:05.974Z,9.27
2019-03-06T22:15:32.564Z,9.13
2019-03-06T22:17:59.235Z,7.50
2019-03-06T22:20:25.771Z,9.30
2019-03-06T22:22:52.611Z,6.83
2019-03-06T22:25:19.273Z,6.80
2019-03-06T22:27:46.052Z,8.50
2019-03-06T22:30:18.560Z,8.77
2019-03-06T22:32:45.459Z,8.23
2019-03-06T22:35:12.311Z,8.33
2019-03-06T22:37:39.150Z,9.57
2019-03-06T22:40:11.140Z,10.13
2019-03-06T22:42:37.691Z,7.83
2019-03-06T22:45:09.098Z,6.00
2019-03-06T22:47:35.794Z,8.27
2019-03-06T22:50:06.709Z,8.30
2019-03-06T22:52:33.390Z,9.33
2019-03-06T22:55:00.045Z,8.20
2019-03-06T22:57:26.760Z,9.00
2019-03-06T22:59:53.324Z,7.33
2019-03-06T23:02:21.938Z,10.13
2019-03-06T23:04:48.560Z,7.77
2019-03-06T23:07:15.130Z,7.80
2019-03-06T23:09:41.765Z,5.67
2019-03-06T23:12:08.419Z,7.37
2019-03-06T23:14:34.886Z,7.77
2019-03-06T23:17:01.363Z,7.10
2019-03-06T23:19:27.904Z,9.47
2019-03-06T23:21:54.549Z,7.87
2019-03-06T23:24:21.203Z,7.67
2019-03-06T23:26:47.609Z,9.17
2019-03-06T23:29:14.149Z,7.90
2019-03-06T23:31:40.891Z,8.57
2019-03-06T23:34:08.261Z,9.10
2019-03-06T23:36:34.847Z,7.77
2019-03-06T23:39:01.280Z,10.17
2019-03-06T23:41:27.785Z,8.30
2019-03-06T23:43:54.334Z,8.10
2019-03-06T23:46:20.849Z,7.27
2019-03-06T23:48:47.663Z,9.80
2019-03-06T23:51:16.133Z,6.77
2019-03-06T23:53:47.344Z,6.67
2019-03-06T23:56:13.933Z,6.73
2019-03-06T23:58:40.586Z,8.93
